createdAt,value
2019-03-15T00:00:11.204Z,0.00
2019-03-15T00:01:16.734Z,0.00
2019-03-15T00:02:22.270Z,0.00
2019-03-15T00:03:27.801Z,0.00
2019-03-15T00:04:33.340Z,0.00
2019-03-15T00:05:38.866Z,0.00
2019-03-15T00:06:44.399Z,0.00
2019-03-15T00:07:49.933Z,0.00
2019-03-15T00:08:55.460Z,0.00
2019-03-15T00:10:00.997Z,0.00
2019-03-15T00:11:06.533Z,0.00
2019-03-15T00:12:12.057Z,0.00
2019-03-15T00:13:17.587Z,0.00
2019-03-15T00:14:23.125Z,0.00
2019-03-15T00:15:28.658Z,0.00
2019-03-15T00:16:34.193Z,0.00
2019-03-15T00:17:39.721Z,0.00
2019-03-15T00:18:45.258Z,0.00
2019-03-15T00:19:50.787Z,0.00
2019-03-15T00:20:56.317Z,0.00
2019-03-15T00:22:01.851Z,0.00
2019-03-15T00:23:07.380Z,0.00
2019-03-15T00:24:12.916Z,0.00
2019-03-15T00:25:18.447Z,0.00
2019-03-15T00:26:23.977Z,0.00
2019-03-15T00:27:29.510Z,0.00
2019-03-15T00:28:35.044Z,0.00
2019-03-15T00:29:40.579Z,0.00
2019-03-15T00:30:46.109Z,0.00
2019-03-15T00:31:51.648Z,0.00
2019-03-15T00:32:57.189Z,0.00
2019-03-15T00:34:02.703Z,0.00
2019-03-15T00:35:08.237Z,0.00
2019-03-15T00:36:13.772Z,0.00
2019-03-15T00:37:19.308Z,0.00
2019-03-15T00:38:24.834Z,0.00
2019-03-15T00:39:30.368Z,0.00
2019-03-15T00:40:35.901Z,0.00
2019-03-15T00:41:41.438Z,0.00
2019-03-15T00:42:46.966Z,0.00
2019-03-15T00:43:52.495Z,0.00
2019-03-15T00:44:58.027Z,0.00
2019-03-15T00:46:03.559Z,0.00
2019-03-15T00:47:09.091Z,0.00
2019-03-15T00:48:14.628Z,0.00
2019-03-15T00:49:20.160Z,0.00
2019-03-15T00:50:25.688Z,0.00
2019-03-15T00:51:31.220Z,0.00
2019-03-15T00:52:36.753Z,0.00
2019-03-15T00:53:42.285Z,0.00
2019-03-15T00:54:47.815Z,0.00
2019-03-15T00:55:53.350Z,0.00
2019-03-15T00:56:58.882Z,0.00
2019-03-15T00:58:04.414Z,0.00
2019-03-15T00:59:09.945Z,0.00
2019-03-15T01:00:15.478Z,0.00
2019-03-15T01:01:21.013Z,0.00
2019-03-15T01:02:26.542Z,0.00
2019-03-15T01:03:32.079Z,0.00
2019-03-15T01:04:37.607Z,0.00
2019-03-15T01:05:43.143Z,0.00
2019-03-15T01:06:48.672Z,0.00
2019-03-15T01:07:54.204Z,0.00
2019-03-15T01:08:59.740Z,0.00
2019-03-15T01:10:05.269Z,0.00
2019-03-15T01:11:10.806Z,0.00
2019-03-15T01:12:16.337Z,0.00
2019-03-15T01:13:21.864Z,0.00
2019-03-15T01:14:27.399Z,0.00
2019-03-15T01:15:32.931Z,0.00
2019-03-15T01:16:38.463Z,0.00
2019-03-15T01:17:43.996Z,0.00
2019-03-15T01:18:49.531Z,0.00
2019-03-15T01:19:55.057Z,0.00
2019-03-15T01:21:00.591Z,0.00
2019-03-15T01:22:06.124Z,0.00
2019-03-15T01:23:11.653Z,0.00
2019-03-15T01:24:17.188Z,0.00
2019-03-15T01:25:22.723Z,0.00
2019-03-15T01:26:28.249Z,0.00
2019-03-15T01:27:33.786Z,0.00
2019-03-15T01:28:39.317Z,0.00
2019-03-15T01:29:44.850Z,0.00
2019-03-15T01:30:50.387Z,0.00
2019-03-15T01:31:55.914Z,0.00
2019-03-15T01:33:01.460Z,0.00
2019-03-15T01:34:06.979Z,0.00
2019-03-15T01:35:12.511Z,0.00
2019-03-15T01:36:18.042Z,0.00
2019-03-15T01:37:23.573Z,0.00
2019-03-15T01:38:29.105Z,0.00
2019-03-15T01:39:35.424Z,0.00
2019-03-15T01:40:40.169Z,0.00
2019-03-15T01:41:45.704Z,0.00
2019-03-15T01:42:51.232Z,0.00
2019-03-15T01:43:56.764Z,0.00
2019-03-15T01:45:02.300Z,0.00
2019-03-15T01:46:08.435Z,0.00
2019-03-15T01:47:13.362Z,0.00
2019-03-15T01:48:18.893Z,0.00
2019-03-15T01:49:24.423Z,0.00
2019-03-15T01:50:29.969Z,0.00
2019-03-15T01:51:35.495Z,0.00
2019-03-15T01:52:41.025Z,0.00
2019-03-15T01:53:46.564Z,0.00
2019-03-15T01:54:52.088Z,0.00
2019-03-15T01:55:57.616Z,0.00
2019-03-15T01:57:03.153Z,0.00
2019-03-15T01:58:08.680Z,0.00
2019-03-15T01:59:14.214Z,0.00
2019-03-15T02:00:19.744Z,0.00
2019-03-15T02:01:25.281Z,0.00
2019-03-15T02:02:30.805Z,0.00
2019-03-15T02:03:36.341Z,0.00
2019-03-15T02:04:41.871Z,0.00
2019-03-15T02:05:47.404Z,0.00
2019-03-15T02:06:52.932Z,0.00
2019-03-15T02:07:58.470Z,0.00
2019-03-15T02:09:03.999Z,0.00
2019-03-15T02:10:09.567Z,0.00
2019-03-15T02:11:15.062Z,0.00
2019-03-15T02:12:20.752Z,0.00
2019-03-15T02:13:26.128Z,0.00
2019-03-15T02:14:31.662Z,0.00
2019-03-15T02:15:37.195Z,0.00
2019-03-15T02:16:42.725Z,0.00
2019-03-15T02:17:48.254Z,0.00
2019-03-15T02:18:53.792Z,0.00
2019-03-15T02:19:59.316Z,0.00
2019-03-15T02:21:04.857Z,0.00
2019-03-15T02:22:10.383Z,0.00
2019-03-15T02:23:15.910Z,0.00
2019-03-15T02:24:21.452Z,0.00
2019-03-15T02:25:27.473Z,0.00
2019-03-15T02:26:32.507Z,0.00
2019-03-15T02:27:38.037Z,0.00
2019-03-15T02:28:43.570Z,0.00
2019-03-15T02:29:49.106Z,0.00
2019-03-15T02:30:54.634Z,0.00
2019-03-15T02:32:00.169Z,0.00
2019-03-15T02:33:06.216Z,0.00
2019-03-15T02:34:11.232Z,0.00
2019-03-15T02:35:16.805Z,0.00
2019-03-15T02:36:22.297Z,0.00
2019-03-15T02:37:27.830Z,0.00
2019-03-15T02:38:33.365Z,0.00
2019-03-15T02:39:38.923Z,0.00
2019-03-15T02:40:44.422Z,0.00
2019-03-15T02:41:49.953Z,0.00
2019-03-15T02:42:55.487Z,0.00
2019-03-15T02:44:01.016Z,0.00
2019-03-15T02:45:06.580Z,0.00
2019-03-15T02:46:12.079Z,0.00
2019-03-15T02:47:18.742Z,0.00
2019-03-15T02:48:23.144Z,0.00
2019-03-15T02:49:28.674Z,0.00
2019-03-15T02:50:34.205Z,0.00
2019-03-15T02:51:39.749Z,0.00
2019-03-15T02:52:45.272Z,0.00
2019-03-15T02:53:50.801Z,0.00
2019-03-15T02:54:56.334Z,0.00
2019-03-15T02:56:01.869Z,0.00
2019-03-15T02:57:08.659Z,0.00
2019-03-15T02:58:12.930Z,0.00
2019-03-15T02:59:18.460Z,0.00
2019-03-15T03:00:23.996Z,0.00
2019-03-15T03:01:29.528Z,0.00
2019-03-15T03:02:35.056Z,0.00
2019-03-15T03:03:40.589Z,0.00
2019-03-15T03:04:46.117Z,0.00
2019-03-15T03:05:51.651Z,0.00
2019-03-15T03:06:57.184Z,0.00
2019-03-15T03:08:02.716Z,0.00
2019-03-15T03:09:08.242Z,0.00
2019-03-15T03:10:13.780Z,0.00
2019-03-15T03:11:19.310Z,0.00
2019-03-15T03:12:24.842Z,0.00
2019-03-15T03:13:30.389Z,0.00
2019-03-15T03:14:35.905Z,0.00
2019-03-15T03:15:41.437Z,0.00
2019-03-15T03:16:47.031Z,0.00
2019-03-15T03:17:52.506Z,0.00
2019-03-15T03:18:58.033Z,0.00
2019-03-15T03:20:03.560Z,0.00
2019-03-15T03:21:09.094Z,0.00
2019-03-15T03:22:14.629Z,0.00
2019-03-15T03:23:20.168Z,0.00
2019-03-15T03:24:25.699Z,0.00
2019-03-15T03:25:31.223Z,0.00
2019-03-15T03:26:36.756Z,0.00
2019-03-15T03:27:42.296Z,0.00
2019-03-15T03:28:47.827Z,0.00
2019-03-15T03:29:53.351Z,0.00
2019-03-15T03:30:58.882Z,0.00
2019-03-15T03:32:04.418Z,0.00
2019-03-15T03:33:12.410Z,0.00
2019-03-15T03:34:15.481Z,0.00
2019-03-15T03:35:21.051Z,0.00
2019-03-15T03:36:26.544Z,0.00
2019-03-15T03:37:32.072Z,0.00
2019-03-15T03:38:39.103Z,0.00
2019-03-15T03:39:43.138Z,0.00
2019-03-15T03:40:48.673Z,0.00
2019-03-15T03:41:54.202Z,0.00
2019-03-15T03:42:59.741Z,0.00
2019-03-15T03:44:05.265Z,0.00
2019-03-15T03:45:10.799Z,0.00
2019-03-15T03:46:16.333Z,0.00
2019-03-15T03:47:21.862Z,0.00
2019-03-15T03:48:27.397Z,0.00
2019-03-15T03:49:32.929Z,0.00
2019-03-15T03:50:38.464Z,0.00
2019-03-15T03:51:43.990Z,0.00
2019-03-15T03:52:49.519Z,0.00
2019-03-15T03:53:55.056Z,0.00
2019-03-15T03:55:00.588Z,0.00
2019-03-15T03:56:06.121Z,0.00
2019-03-15T03:57:11.649Z,0.00
2019-03-15T03:58:17.180Z,0.00
2019-03-15T03:59:22.714Z,0.00
2019-03-15T04:00:28.287Z,0.00
2019-03-15T04:01:33.781Z,0.00
2019-03-15T04:02:39.315Z,0.00
2019-03-15T04:03:44.847Z,0.00
2019-03-15T04:04:50.376Z,0.00
2019-03-15T04:05:55.906Z,0.00
2019-03-15T04:07:01.435Z,0.00
2019-03-15T04:08:06.969Z,0.00
2019-03-15T04:09:12.504Z,0.00
2019-03-15T04:10:18.037Z,0.00
2019-03-15T04:11:23.566Z,0.00
2019-03-15T04:12:29.100Z,0.00
2019-03-15T04:13:34.641Z,0.00
2019-03-15T04:14:40.163Z,0.00
2019-03-15T04:15:45.698Z,0.00
2019-03-15T04:16:51.230Z,0.00
2019-03-15T04:17:56.759Z,0.00
2019-03-15T04:19:02.296Z,0.00
2019-03-15T04:20:07.824Z,0.00
2019-03-15T04:21:13.355Z,0.00
2019-03-15T04:22:18.887Z,0.00
2019-03-15T04:23:24.424Z,0.00
2019-03-15T04:24:29.952Z,0.00
2019-03-15T04:25:35.482Z,0.00
2019-03-15T04:26:41.015Z,0.00
2019-03-15T04:27:46.547Z,0.00
2019-03-15T04:28:52.081Z,0.00
2019-03-15T04:29:57.614Z,0.00
2019-03-15T04:31:03.145Z,0.00
2019-03-15T04:32:08.680Z,0.00
2019-03-15T04:33:14.212Z,0.00
2019-03-15T04:34:19.747Z,0.00
2019-03-15T04:35:25.276Z,0.00
2019-03-15T04:36:30.808Z,0.00
2019-03-15T04:37:36.338Z,0.00
2019-03-15T04:38:41.872Z,0.00
2019-03-15T04:39:47.407Z,0.00
2019-03-15T04:40:52.939Z,0.00
2019-03-15T04:41:58.471Z,0.00
2019-03-15T04:43:04.002Z,0.00
2019-03-15T04:44:09.536Z,0.00
2019-03-15T04:45:15.071Z,0.00
2019-03-15T04:46:20.599Z,0.00
2019-03-15T04:47:26.131Z,0.00
2019-03-15T04:48:31.663Z,0.00
2019-03-15T04:49:37.195Z,0.00
2019-03-15T04:50:42.772Z,0.00
2019-03-15T04:51:48.262Z,0.00
2019-03-15T04:52:53.796Z,0.00
2019-03-15T04:53:59.325Z,0.00
2019-03-15T04:55:04.865Z,0.00
2019-03-15T04:56:10.388Z,0.00
2019-03-15T04:57:15.922Z,0.00
2019-03-15T04:58:21.454Z,0.00
2019-03-15T04:59:26.986Z,0.00
2019-03-15T05:00:32.516Z,0.00
2019-03-15T05:01:38.050Z,0.00
2019-03-15T05:02:43.591Z,0.00
2019-03-15T05:03:49.118Z,0.00
2019-03-15T05:04:54.647Z,0.00
2019-03-15T05:06:03.648Z,0.00
2019-03-15T05:07:05.716Z,0.00
2019-03-15T05:08:11.246Z,0.00
2019-03-15T05:09:16.778Z,0.00
2019-03-15T05:10:22.307Z,0.00
2019-03-15T05:11:27.850Z,4.00
2019-03-15T05:12:33.379Z,0.00
2019-03-15T05:13:38.907Z,4.00
2019-03-15T05:14:44.463Z,4.00
2019-03-15T05:15:49.970Z,0.00
2019-03-15T05:16:55.509Z,4.00
2019-03-15T05:18:01.035Z,4.00
2019-03-15T05:19:06.571Z,4.00
2019-03-15T05:20:12.176Z,4.00
2019-03-15T05:21:17.636Z,4.00
2019-03-15T05:22:23.169Z,8.00
2019-03-15T05:23:28.700Z,8.00
2019-03-15T05:24:34.233Z,16.00
2019-03-15T05:25:39.762Z,16.00
2019-03-15T05:26:45.297Z,20.00
2019-03-15T05:27:50.827Z,24.00
2019-03-15T05:28:56.360Z,32.00
2019-03-15T05:30:01.895Z,36.00
2019-03-15T05:31:07.424Z,40.00
2019-03-15T05:32:12.959Z,52.00
2019-03-15T05:33:18.489Z,64.00
2019-03-15T05:34:24.020Z,76.00
2019-03-15T05:35:29.556Z,84.00
2019-03-15T05:36:35.085Z,92.00
2019-03-15T05:37:40.617Z,100.00
2019-03-15T05:38:46.155Z,104.00
2019-03-15T05:39:51.683Z,112.00
2019-03-15T05:40:57.218Z,120.00
2019-03-15T05:42:02.750Z,120.00
2019-03-15T05:43:08.338Z,124.00
2019-03-15T05:44:13.814Z,124.00
2019-03-15T05:45:19.345Z,120.00
2019-03-15T05:46:24.881Z,108.00
2019-03-15T05:47:30.413Z,96.00
2019-03-15T05:48:35.942Z,92.00
2019-03-15T05:49:41.474Z,88.00
2019-03-15T05:50:47.012Z,88.00
2019-03-15T05:51:52.539Z,96.00
2019-03-15T05:52:58.075Z,116.00
2019-03-15T05:54:03.606Z,128.00
2019-03-15T05:55:09.138Z,140.00
2019-03-15T05:56:14.669Z,164.00
2019-03-15T05:57:20.203Z,180.00
2019-03-15T05:58:25.736Z,164.00
2019-03-15T05:59:31.268Z,160.00
2019-03-15T06:00:36.799Z,156.00
2019-03-15T06:01:42.329Z,156.00
2019-03-15T06:02:47.866Z,164.00
2019-03-15T06:03:53.405Z,172.00
2019-03-15T06:04:58.932Z,188.00
2019-03-15T06:06:04.461Z,196.00
2019-03-15T06:07:09.994Z,192.00
2019-03-15T06:08:15.531Z,196.00
2019-03-15T06:09:21.060Z,216.00
2019-03-15T06:10:26.595Z,268.00
2019-03-15T06:11:32.122Z,316.00
2019-03-15T06:12:37.657Z,340.00
2019-03-15T06:13:43.191Z,352.00
2019-03-15T06:14:48.724Z,364.00
2019-03-15T06:15:54.264Z,388.00
2019-03-15T06:16:59.789Z,396.00
2019-03-15T06:18:06.770Z,376.00
2019-03-15T06:19:10.861Z,344.00
2019-03-15T06:20:16.391Z,320.00
2019-03-15T06:21:21.921Z,304.00
2019-03-15T06:24:10.124Z,276.00
2019-03-15T06:25:15.667Z,296.00
2019-03-15T06:27:25.152Z,352.00
2019-03-15T06:28:30.664Z,384.00
2019-03-15T06:30:40.160Z,436.00
2019-03-15T06:31:45.727Z,412.00
2019-03-15T06:33:55.196Z,464.00
2019-03-15T06:35:00.708Z,440.00
2019-03-15T06:37:10.231Z,316.00
2019-03-15T06:38:15.732Z,284.00
2019-03-15T06:40:25.228Z,300.00
2019-03-15T06:41:30.751Z,352.00
2019-03-15T06:43:40.252Z,364.00
2019-03-15T06:44:57.481Z,384.00
2019-03-15T06:46:55.259Z,404.00
2019-03-15T06:48:00.941Z,404.00
2019-03-15T06:50:10.297Z,332.00
2019-03-15T06:51:15.806Z,356.00
2019-03-15T06:53:14.237Z,424.00
2019-03-15T06:54:19.756Z,476.00
2019-03-15T06:55:25.569Z,540.00
2019-03-15T06:56:30.820Z,600.00
2019-03-15T06:57:36.354Z,632.00
2019-03-15T06:58:41.888Z,624.00
2019-03-15T06:59:47.412Z,604.00
2019-03-15T07:00:54.689Z,616.00
2019-03-15T07:01:58.478Z,632.00
2019-03-15T07:03:04.011Z,644.00
2019-03-15T07:04:09.544Z,692.00
2019-03-15T07:05:15.075Z,664.00
2019-03-15T07:06:20.613Z,616.00
2019-03-15T07:07:26.138Z,548.00
2019-03-15T07:08:31.670Z,500.00
2019-03-15T07:09:38.384Z,564.00
2019-03-15T07:10:44.220Z,608.00
2019-03-15T07:11:48.267Z,588.00
2019-03-15T07:12:53.796Z,568.00
2019-03-15T07:13:59.330Z,584.00
2019-03-15T07:15:04.864Z,632.00
2019-03-15T07:16:10.406Z,696.00
2019-03-15T07:17:15.931Z,724.00
2019-03-15T07:18:21.465Z,724.00
2019-03-15T07:19:30.320Z,676.00
2019-03-15T07:20:32.530Z,676.00
2019-03-15T07:21:38.061Z,588.00
2019-03-15T07:22:43.595Z,508.00
2019-03-15T07:23:49.381Z,448.00
2019-03-15T07:24:54.666Z,420.00
2019-03-15T07:26:00.195Z,408.00
2019-03-15T07:27:12.808Z,396.00
2019-03-15T07:28:11.261Z,376.00
2019-03-15T07:29:18.988Z,428.00
2019-03-15T07:30:22.327Z,528.00
2019-03-15T07:31:27.861Z,672.00
2019-03-15T07:32:33.395Z,724.00
2019-03-15T07:33:38.926Z,788.00
2019-03-15T07:34:44.462Z,772.00
2019-03-15T07:35:49.993Z,684.00
2019-03-15T07:36:55.552Z,576.00
2019-03-15T07:38:01.060Z,580.00
2019-03-15T07:39:06.603Z,612.00
2019-03-15T07:40:12.162Z,568.00
2019-03-15T07:41:17.660Z,624.00
2019-03-15T07:42:23.200Z,700.00
2019-03-15T07:43:28.724Z,784.00
2019-03-15T07:44:34.261Z,756.00
2019-03-15T07:45:39.790Z,864.00
2019-03-15T07:46:45.322Z,940.00
2019-03-15T07:47:50.860Z,960.00
2019-03-15T07:48:56.410Z,956.00
2019-03-15T07:50:01.936Z,968.00
2019-03-15T07:51:07.459Z,952.00
2019-03-15T07:52:12.994Z,844.00
2019-03-15T07:53:18.526Z,768.00
2019-03-15T07:54:37.023Z,720.00
2019-03-15T07:55:29.591Z,736.00
2019-03-15T07:56:35.129Z,812.00
2019-03-15T07:57:40.660Z,792.00
2019-03-15T07:58:46.192Z,784.00
2019-03-15T07:59:51.728Z,728.00
2019-03-15T08:00:57.260Z,728.00
2019-03-15T08:02:02.792Z,720.00
2019-03-15T08:03:08.329Z,760.00
2019-03-15T08:04:17.057Z,768.00
2019-03-15T08:05:19.398Z,708.00
2019-03-15T08:06:34.049Z,732.00
2019-03-15T08:07:36.378Z,808.00
2019-03-15T08:08:36.081Z,892.00
2019-03-15T08:09:41.528Z,908.00
2019-03-15T08:10:47.061Z,900.00
2019-03-15T08:11:52.595Z,944.00
2019-03-15T08:12:58.128Z,932.00
2019-03-15T08:14:03.661Z,908.00
2019-03-15T08:15:09.194Z,904.00
2019-03-15T08:16:14.728Z,892.00
2019-03-15T08:17:20.269Z,912.00
2019-03-15T08:18:25.796Z,900.00
2019-03-15T08:19:31.329Z,912.00
2019-03-15T08:20:36.863Z,1020.00
2019-03-15T08:21:42.403Z,1096.00
2019-03-15T08:22:47.930Z,1148.00
2019-03-15T08:23:53.462Z,1136.00
2019-03-15T08:24:58.996Z,1112.00
2019-03-15T08:26:04.531Z,1088.00
2019-03-15T08:27:10.062Z,1164.00
2019-03-15T08:28:15.617Z,1204.00
2019-03-15T08:29:21.131Z,1292.00
2019-03-15T08:30:26.667Z,1372.00
2019-03-15T08:31:32.201Z,1412.00
2019-03-15T08:32:37.736Z,1456.00
2019-03-15T08:33:43.268Z,1516.00
2019-03-15T08:34:48.802Z,1524.00
2019-03-15T08:35:54.338Z,1544.00
2019-03-15T08:36:59.875Z,1548.00
2019-03-15T08:38:05.590Z,1528.00
2019-03-15T08:39:10.935Z,1492.00
2019-03-15T08:40:16.470Z,1500.00
2019-03-15T08:41:22.004Z,1472.00
2019-03-15T08:42:27.540Z,1580.00
2019-03-15T08:43:33.071Z,1636.00
2019-03-15T08:44:38.607Z,1692.00
2019-03-15T08:45:44.141Z,1648.00
2019-03-15T08:46:49.673Z,1648.00
2019-03-15T08:47:55.267Z,1728.00
2019-03-15T08:49:00.738Z,1872.00
2019-03-15T08:50:06.271Z,1728.00
2019-03-15T08:51:11.810Z,1928.00
2019-03-15T08:52:17.347Z,1936.00
2019-03-15T08:53:22.877Z,1784.00
2019-03-15T08:54:28.414Z,1788.00
2019-03-15T08:55:33.945Z,1684.00
2019-03-15T08:56:39.480Z,1620.00
2019-03-15T08:57:45.014Z,1660.00
2019-03-15T08:58:50.548Z,1676.00
2019-03-15T08:59:57.653Z,1644.00
2019-03-15T09:01:01.617Z,1544.00
2019-03-15T09:02:07.157Z,1468.00
2019-03-15T09:03:12.683Z,1308.00
2019-03-15T09:04:21.266Z,1176.00
2019-03-15T09:05:23.757Z,1136.00
2019-03-15T09:06:29.288Z,1152.00
2019-03-15T09:07:34.825Z,1220.00
2019-03-15T09:08:40.370Z,1404.00
2019-03-15T09:09:45.892Z,1532.00
2019-03-15T09:10:51.428Z,1516.00
2019-03-15T09:11:56.965Z,1376.00
2019-03-15T09:13:02.499Z,1188.00
2019-03-15T09:14:08.044Z,1020.00
2019-03-15T09:15:13.564Z,1028.00
2019-03-15T09:16:19.098Z,1088.00
2019-03-15T09:17:24.628Z,1192.00
2019-03-15T09:18:30.169Z,1388.00
2019-03-15T09:19:35.703Z,1272.00
2019-03-15T09:20:41.232Z,1152.00
2019-03-15T09:21:46.838Z,1180.00
2019-03-15T09:22:52.304Z,1428.00
2019-03-15T09:23:57.841Z,1688.00
2019-03-15T09:25:03.375Z,1676.00
2019-03-15T09:26:10.484Z,1640.00
2019-03-15T09:27:14.442Z,1588.00
2019-03-15T09:28:19.979Z,1596.00
2019-03-15T09:29:25.511Z,1752.00
2019-03-15T09:30:31.045Z,2068.00
2019-03-15T09:31:47.078Z,2132.00
2019-03-15T09:32:42.115Z,2304.00
2019-03-15T09:33:47.648Z,2348.00
2019-03-15T09:34:55.652Z,2348.00
2019-03-15T09:35:58.719Z,2384.00
2019-03-15T09:37:04.258Z,2400.00
2019-03-15T09:38:10.641Z,2324.00
2019-03-15T09:39:15.333Z,2232.00
2019-03-15T09:40:20.864Z,2204.00
2019-03-15T09:41:33.361Z,2240.00
2019-03-15T09:42:31.933Z,2100.00
2019-03-15T09:43:37.468Z,1960.00
2019-03-15T09:44:43.000Z,1940.00
2019-03-15T09:45:48.532Z,2040.00
2019-03-15T09:46:54.067Z,2184.00
2019-03-15T09:47:59.617Z,2272.00
2019-03-15T09:49:05.145Z,2052.00
2019-03-15T09:50:20.981Z,1828.00
2019-03-15T09:51:16.208Z,1764.00
2019-03-15T09:52:21.742Z,1920.00
2019-03-15T09:53:27.283Z,1968.00
2019-03-15T09:54:32.817Z,1800.00
2019-03-15T09:55:38.357Z,1540.00
2019-03-15T09:56:43.886Z,1364.00
2019-03-15T09:57:49.421Z,1308.00
2019-03-15T09:58:54.955Z,1208.00
2019-03-15T10:00:00.492Z,1292.00
2019-03-15T10:01:06.462Z,1356.00
2019-03-15T10:02:11.561Z,1380.00
2019-03-15T10:03:22.030Z,1420.00
2019-03-15T10:04:22.630Z,1524.00
2019-03-15T10:05:28.169Z,1652.00
2019-03-15T10:06:33.700Z,1656.00
2019-03-15T10:07:42.757Z,1676.00
2019-03-15T10:08:44.776Z,1804.00
2019-03-15T10:09:50.309Z,1848.00
2019-03-15T10:10:55.847Z,1812.00
2019-03-15T10:12:01.377Z,1824.00
2019-03-15T10:13:06.925Z,1912.00
2019-03-15T10:14:12.448Z,2252.00
2019-03-15T10:15:17.989Z,2476.00
2019-03-15T10:16:23.513Z,2472.00
2019-03-15T10:17:29.055Z,2512.00
2019-03-15T10:18:34.594Z,3012.00
2019-03-15T10:19:40.119Z,2616.00
2019-03-15T10:20:45.755Z,2496.00
2019-03-15T10:21:51.196Z,2152.00
2019-03-15T10:23:05.765Z,1664.00
2019-03-15T10:24:02.270Z,1656.00
2019-03-15T10:25:07.799Z,1796.00
2019-03-15T10:26:15.055Z,1832.00
2019-03-15T10:27:18.875Z,1928.00
2019-03-15T10:28:24.415Z,1592.00
2019-03-15T10:29:29.947Z,1320.00
2019-03-15T10:30:35.483Z,1132.00
2019-03-15T10:31:41.014Z,1060.00
2019-03-15T10:32:46.554Z,1092.00
2019-03-15T10:33:52.085Z,1088.00
2019-03-15T10:34:57.624Z,1060.00
2019-03-15T10:36:03.162Z,940.00
2019-03-15T10:37:08.695Z,788.00
2019-03-15T10:38:16.641Z,636.00
2019-03-15T10:39:19.767Z,596.00
2019-03-15T10:40:25.303Z,620.00
2019-03-15T10:41:30.834Z,720.00
2019-03-15T10:42:36.378Z,856.00
2019-03-15T10:43:41.904Z,832.00
2019-03-15T10:44:47.447Z,792.00
2019-03-15T10:45:52.983Z,740.00
2019-03-15T10:46:58.517Z,760.00
2019-03-15T10:48:04.061Z,1016.00
2019-03-15T10:49:09.588Z,1304.00
2019-03-15T10:50:15.127Z,1400.00
2019-03-15T10:51:20.657Z,1324.00
2019-03-15T10:52:26.193Z,1212.00
2019-03-15T10:53:31.729Z,1036.00
2019-03-15T10:56:19.964Z,948.00
2019-03-15T10:57:25.461Z,900.00
2019-03-15T10:59:34.972Z,940.00
2019-03-15T11:00:40.497Z,868.00
2019-03-15T11:02:38.926Z,736.00
2019-03-15T11:03:44.456Z,732.00
2019-03-15T11:04:49.988Z,712.00
2019-03-15T11:05:55.521Z,636.00
2019-03-15T11:07:01.060Z,636.00
2019-03-15T11:08:06.591Z,652.00
2019-03-15T11:09:12.127Z,628.00
2019-03-15T11:10:17.661Z,660.00
2019-03-15T11:11:23.195Z,692.00
2019-03-15T11:12:28.732Z,712.00
2019-03-15T11:13:34.260Z,692.00
2019-03-15T11:14:39.796Z,632.00
2019-03-15T11:15:45.338Z,640.00
2019-03-15T11:16:50.868Z,640.00
2019-03-15T11:17:56.401Z,636.00
2019-03-15T11:19:01.932Z,616.00
2019-03-15T11:20:07.470Z,592.00
2019-03-15T11:21:13.001Z,572.00
2019-03-15T11:22:18.547Z,604.00
2019-03-15T11:23:24.068Z,684.00
2019-03-15T11:24:29.605Z,696.00
2019-03-15T11:25:35.152Z,720.00
2019-03-15T11:26:40.671Z,736.00
2019-03-15T11:27:46.207Z,780.00
2019-03-15T11:28:51.742Z,804.00
2019-03-15T11:29:57.272Z,768.00
2019-03-15T11:31:02.808Z,708.00
2019-03-15T11:32:08.343Z,684.00
2019-03-15T11:33:13.881Z,696.00
2019-03-15T11:34:19.409Z,740.00
2019-03-15T11:35:24.946Z,816.00
2019-03-15T11:36:30.485Z,952.00
2019-03-15T11:37:36.017Z,1056.00
2019-03-15T11:38:41.552Z,1032.00
2019-03-15T11:39:47.082Z,1000.00
2019-03-15T11:40:52.628Z,944.00
2019-03-15T11:41:58.156Z,816.00
2019-03-15T11:43:03.691Z,748.00
2019-03-15T11:44:09.225Z,736.00
2019-03-15T11:45:14.764Z,724.00
2019-03-15T11:46:20.297Z,700.00
2019-03-15T11:47:25.854Z,732.00
2019-03-15T11:48:31.370Z,776.00
2019-03-15T11:49:36.898Z,852.00
2019-03-15T11:50:42.435Z,924.00
2019-03-15T11:51:47.963Z,916.00
2019-03-15T11:52:53.502Z,1012.00
2019-03-15T11:53:59.038Z,964.00
2019-03-15T11:55:04.574Z,856.00
2019-03-15T11:56:10.115Z,764.00
2019-03-15T11:57:15.636Z,692.00
2019-03-15T11:58:21.176Z,708.00
2019-03-15T11:59:26.706Z,656.00
2019-03-15T12:00:32.246Z,624.00
2019-03-15T12:01:37.913Z,660.00
2019-03-15T12:02:43.312Z,612.00
2019-03-15T12:03:53.258Z,780.00
2019-03-15T12:04:54.381Z,812.00
2019-03-15T12:05:59.920Z,772.00
2019-03-15T12:07:05.453Z,800.00
2019-03-15T12:08:10.982Z,856.00
2019-03-15T12:09:16.523Z,792.00
2019-03-15T12:10:22.053Z,864.00
2019-03-15T12:11:27.590Z,1000.00
2019-03-15T12:12:33.126Z,836.00
2019-03-15T12:13:38.660Z,696.00
2019-03-15T12:14:44.197Z,680.00
2019-03-15T12:15:49.724Z,896.00
2019-03-15T12:16:55.270Z,1336.00
2019-03-15T12:18:00.801Z,1576.00
2019-03-15T12:19:06.340Z,1284.00
2019-03-15T12:20:11.865Z,996.00
2019-03-15T12:21:17.400Z,748.00
2019-03-15T12:22:23.090Z,624.00
2019-03-15T12:23:28.465Z,540.00
2019-03-15T12:24:34.060Z,580.00
2019-03-15T12:25:39.659Z,828.00
2019-03-15T12:26:45.136Z,1040.00
2019-03-15T12:27:50.608Z,924.00
2019-03-15T12:28:56.143Z,852.00
2019-03-15T12:30:01.690Z,772.00
2019-03-15T12:31:07.207Z,672.00
2019-03-15T12:32:12.744Z,592.00
2019-03-15T12:33:18.279Z,660.00
2019-03-15T12:34:23.818Z,808.00
2019-03-15T12:35:29.344Z,840.00
2019-03-15T12:36:34.879Z,716.00
2019-03-15T12:37:40.416Z,688.00
2019-03-15T12:38:45.951Z,576.00
2019-03-15T12:39:51.484Z,828.00
2019-03-15T12:40:57.022Z,1044.00
2019-03-15T12:42:02.554Z,736.00
2019-03-15T12:43:08.085Z,832.00
2019-03-15T12:44:13.626Z,976.00
2019-03-15T12:45:19.158Z,844.00
2019-03-15T12:46:24.695Z,800.00
2019-03-15T12:47:30.927Z,808.00
2019-03-15T12:48:35.777Z,788.00
2019-03-15T12:49:41.427Z,700.00
2019-03-15T12:50:46.974Z,608.00
2019-03-15T12:51:53.066Z,656.00
2019-03-15T12:52:57.973Z,660.00
2019-03-15T12:54:03.535Z,744.00
2019-03-15T12:55:09.031Z,648.00
2019-03-15T12:56:16.099Z,568.00
2019-03-15T12:57:20.260Z,536.00
2019-03-15T12:58:25.563Z,540.00
2019-03-15T12:59:31.106Z,568.00
2019-03-15T13:00:36.634Z,560.00
2019-03-15T13:01:42.168Z,724.00
2019-03-15T13:02:47.704Z,912.00
2019-03-15T13:03:53.235Z,800.00
2019-03-15T13:04:58.773Z,772.00
2019-03-15T13:06:04.306Z,704.00
2019-03-15T13:07:09.906Z,692.00
2019-03-15T13:08:15.375Z,748.00
2019-03-15T13:09:20.907Z,728.00
2019-03-15T13:10:26.446Z,608.00
2019-03-15T13:11:31.975Z,516.00
2019-03-15T13:12:37.515Z,440.00
2019-03-15T13:13:43.051Z,428.00
2019-03-15T13:14:48.577Z,444.00
2019-03-15T13:15:54.125Z,568.00
2019-03-15T13:16:59.650Z,584.00
2019-03-15T13:18:05.177Z,616.00
2019-03-15T13:19:10.716Z,756.00
2019-03-15T13:20:16.249Z,752.00
2019-03-15T13:21:21.842Z,888.00
2019-03-15T13:22:27.322Z,976.00
2019-03-15T13:23:32.851Z,976.00
2019-03-15T13:24:38.384Z,780.00
2019-03-15T13:25:43.923Z,840.00
2019-03-15T13:26:49.454Z,700.00
2019-03-15T13:27:54.988Z,588.00
2019-03-15T13:29:00.522Z,528.00
2019-03-15T13:30:06.125Z,468.00
2019-03-15T13:31:11.591Z,460.00
2019-03-15T13:32:17.124Z,528.00
2019-03-15T13:33:22.668Z,460.00
2019-03-15T13:34:28.338Z,468.00
2019-03-15T13:35:33.728Z,536.00
2019-03-15T13:36:39.261Z,452.00
2019-03-15T13:37:44.797Z,492.00
2019-03-15T13:38:50.330Z,404.00
2019-03-15T13:39:55.865Z,484.00
2019-03-15T13:41:01.397Z,624.00
2019-03-15T13:42:07.041Z,728.00
2019-03-15T13:43:12.486Z,768.00
2019-03-15T13:44:18.001Z,832.00
2019-03-15T13:45:23.534Z,760.00
2019-03-15T13:46:29.068Z,1000.00
2019-03-15T13:47:34.604Z,1360.00
2019-03-15T13:48:40.206Z,1608.00
2019-03-15T13:49:45.671Z,1636.00
2019-03-15T13:50:51.208Z,1692.00
2019-03-15T13:51:56.741Z,1520.00
2019-03-15T13:53:02.276Z,1552.00
2019-03-15T13:54:07.807Z,1876.00
2019-03-15T13:55:13.343Z,1812.00
2019-03-15T13:56:18.885Z,1804.00
2019-03-15T13:57:24.414Z,1856.00
2019-03-15T13:58:29.944Z,1960.00
2019-03-15T13:59:35.481Z,2020.00
2019-03-15T14:00:41.018Z,2024.00
2019-03-15T14:01:46.556Z,2012.00
2019-03-15T14:02:52.085Z,1940.00
2019-03-15T14:03:57.622Z,1924.00
2019-03-15T14:05:03.155Z,1848.00
2019-03-15T14:06:08.690Z,1716.00
2019-03-15T14:07:14.227Z,1584.00